Terminal Aerodrome Forecast
Issued by NWS

Home | Current Version | Previous Version | Graphics & Text | Print | Product List | Glossary Off
Versions: 1 2 3 4 5 6 7 8 9 10 11 12

000
FTUS43 KMPX 102300
TAFRWF
TAF
KRWF 102337Z 1100/1124 17013KT P6SM VCSH SCT050 OVC080
      TEMPO 1104/1108 4SM TSRA OVC035CB
     FM111000 17007KT P6SM -SHRA BKN040 OVC080
     FM111400 20010KT P6SM SCT050 BKN100 PROB30 1122/1124 4SM TSRA
      BKN045CB=

USA.gov is the U.S. government's official web portal to all federal, state and local government web resources and services.